sensor_id;sensor_type;location;lat;lon;timestamp;pressure;altitude;pressure_sealevel;temperature;humidity
9899;BME280;4988;49.238;6.698;2023-02-12T00:01:30;101198.69;;;5.45;100.00
9899;BME280;4988;49.238;6.698;2023-02-12T00:03:56;101203.13;;;5.46;100.00
9899;BME280;4988;49.238;6.698;2023-02-12T00:06:21;101211.06;;;5.49;100.00
9899;BME280;4988;49.238;6.698;2023-02-12T00:08:52;101207.53;;;5.48;100.00
9899;BME280;4988;49.238;6.698;2023-02-12T00:11:20;101201.34;;;5.43;100.00
9899;BME280;4988;49.238;6.698;2023-02-12T00:13:45;101207.50;;;5.44;100.00
9899;BME280;4988;49.238;6.698;2023-02-12T00:16:16;101195.16;;;5.41;100.00
9899;BME280;4988;49.238;6.698;2023-02-12T00:18:43;101197.72;;;5.34;100.00
9899;BME280;4988;49.238;6.698;2023-02-12T00:21:09;101202.06;;;5.27;100.00
9899;BME280;4988;49.238;6.698;2023-02-12T00:23:37;101194.88;;;5.13;100.00
9899;BME280;4988;49.238;6.698;2023-02-12T00:26:07;101196.59;;;5.05;100.00
9899;BME280;4988;49.238;6.698;2023-02-12T00:28:34;101189.59;;;5.10;100.00
9899;BME280;4988;49.238;6.698;2023-02-12T00:31:08;101193.16;;;5.12;100.00
9899;BME280;4988;49.238;6.698;2023-02-12T00:33:34;101193.00;;;4.98;100.00
9899;BME280;4988;49.238;6.698;2023-02-12T00:35:59;101191.22;;;4.97;100.00
9899;BME280;4988;49.238;6.698;2023-02-12T00:38:25;101184.19;;;4.96;100.00
9899;BME280;4988;49.238;6.698;2023-02-12T00:40:51;101185.81;;;4.85;100.00
9899;BME280;4988;49.238;6.698;2023-02-12T00:43:16;101181.25;;;4.72;100.00
9899;BME280;4988;49.238;6.698;2023-02-12T00:45:43;101178.63;;;4.70;100.00
9899;BME280;4988;49.238;6.698;2023-02-12T00:48:09;101188.38;;;4.79;100.00
9899;BME280;4988;49.238;6.698;2023-02-12T00:50:34;101193.78;;;4.90;100.00
9899;BME280;4988;49.238;6.698;2023-02-12T00:52:59;101199.97;;;4.95;100.00
9899;BME280;4988;49.238;6.698;2023-02-12T00:55:25;101206.22;;;5.02;100.00
9899;BME280;4988;49.238;6.698;2023-02-12T00:57:50;101208.09;;;5.12;100.00
9899;BME280;4988;49.238;6.698;2023-02-12T01:00:16;101204.56;;;5.13;100.00
9899;BME280;4988;49.238;6.698;2023-02-12T01:02:41;101206.34;;;5.15;100.00
9899;BME280;4988;49.238;6.698;2023-02-12T01:05:07;101207.22;;;5.14;100.00
9899;BME280;4988;49.238;6.698;2023-02-12T01:07:32;101209.00;;;5.15;100.00
9899;BME280;4988;49.238;6.698;2023-02-12T01:09:57;101203.72;;;5.17;100.00
9899;BME280;4988;49.238;6.698;2023-02-12T01:12:23;101208.19;;;5.21;100.00
9899;BME280;4988;49.238;6.698;2023-02-12T01:14:48;101207.28;;;5.19;100.00
9899;BME280;4988;49.238;6.698;2023-02-12T01:17:13;101212.63;;;5.25;100.00
9899;BME280;4988;49.238;6.698;2023-02-12T01:19:39;101203.81;;;5.25;100.00
9899;BME280;4988;49.238;6.698;2023-02-12T01:22:04;101208.25;;;5.29;100.00
9899;BME280;4988;49.238;6.698;2023-02-12T01:24:30;101206.47;;;5.26;100.00
9899;BME280;4988;49.238;6.698;2023-02-12T01:26:55;101216.16;;;5.29;100.00
9899;BME280;4988;49.238;6.698;2023-02-12T01:29:21;101203.88;;;5.31;100.00
9899;BME280;4988;49.238;6.698;2023-02-12T01:31:46;101198.59;;;5.31;100.00
9899;BME280;4988;49.238;6.698;2023-02-12T01:34:11;101198.59;;;5.34;100.00
9899;BME280;4988;49.238;6.698;2023-02-12T01:36:37;101204.75;;;5.33;100.00
9899;BME280;4988;49.238;6.698;2023-02-12T01:39:04;101200.34;;;5.32;100.00
9899;BME280;4988;49.238;6.698;2023-02-12T01:41:33;101203.88;;;5.31;100.00
9899;BME280;4988;49.238;6.698;2023-02-12T01:44:06;101205.63;;;5.32;100.00
9899;BME280;4988;49.238;6.698;2023-02-12T01:46:32;101195.94;;;5.31;100.00
9899;BME280;4988;49.238;6.698;2023-02-12T01:48:57;101196.81;;;5.33;100.00
9899;BME280;4988;49.238;6.698;2023-02-12T01:51:23;101199.47;;;5.31;100.00
9899;BME280;4988;49.238;6.698;2023-02-12T01:53:52;101199.47;;;5.31;100.00
9899;BME280;4988;49.238;6.698;2023-02-12T01:56:19;101197.69;;;5.29;100.00
9899;BME280;4988;49.238;6.698;2023-02-12T01:58:45;101194.13;;;5.27;100.00
9899;BME280;4988;49.238;6.698;2023-02-12T02:01:16;101196.78;;;5.27;100.00
9899;BME280;4988;49.238;6.698;2023-02-12T02:03:44;101201.22;;;5.31;100.00
9899;BME280;4988;49.238;6.698;2023-02-12T02:06:15;101192.41;;;5.27;100.00
9899;BME280;4988;49.238;6.698;2023-02-12T02:08:41;101189.72;;;5.23;100.00
9899;BME280;4988;49.238;6.698;2023-02-12T02:11:06;101188.81;;;5.22;100.00
9899;BME280;4988;49.238;6.698;2023-02-12T02:13:51;101183.50;;;5.21;100.00
9899;BME280;4988;49.238;6.698;2023-02-12T02:16:37;101189.66;;;5.18;100.00
9899;BME280;4988;49.238;6.698;2023-02-12T02:19:41;101184.38;;;5.15;100.00
9899;BME280;4988;49.238;6.698;2023-02-12T02:25:13;101181.69;;;5.13;100.00
9899;BME280;4988;49.238;6.698;2023-02-12T02:28:12;101180.88;;;5.18;100.00
9899;BME280;4988;49.238;6.698;2023-02-12T02:33:23;101179.09;;;5.17;100.00
9899;BME280;4988;49.238;6.698;2023-02-12T02:38:52;101170.25;;;5.11;100.00
9899;BME280;4988;49.238;6.698;2023-02-12T02:44:23;101165.84;;;5.13;100.00
9899;BME280;4988;49.238;6.698;2023-02-12T02:46:51;101177.31;;;5.15;100.00
9899;BME280;4988;49.238;6.698;2023-02-12T02:49:26;101170.25;;;5.14;100.00
9899;BME280;4988;49.238;6.698;2023-02-12T02:52:06;101164.97;;;5.14;100.00
9899;BME280;4988;49.238;6.698;2023-02-12T02:54:36;101168.53;;;5.17;100.00
9899;BME280;4988;49.238;6.698;2023-02-12T02:57:13;101162.34;;;5.13;100.00
9899;BME280;4988;49.238;6.698;2023-02-12T02:59:45;101164.13;;;5.15;100.00
9899;BME280;4988;49.238;6.698;2023-02-12T03:02:31;101159.66;;;5.10;100.00
9899;BME280;4988;49.238;6.698;2023-02-12T03:05:13;101149.13;;;5.11;100.00
9899;BME280;4988;49.238;6.698;2023-02-12T03:07:45;101155.28;;;5.12;100.00
9899;BME280;4988;49.238;6.698;2023-02-12T03:10:17;101158.78;;;5.11;100.00
9899;BME280;4988;49.238;6.698;2023-02-12T03:12:51;101155.28;;;5.09;100.00
9899;BME280;4988;49.238;6.698;2023-02-12T03:15:33;101152.56;;;5.03;100.00
9899;BME280;4988;49.238;6.698;2023-02-12T03:18:00;101151.63;;;4.97;100.00
9899;BME280;4988;49.238;6.698;2023-02-12T03:20:34;101151.66;;;5.01;100.00
9899;BME280;4988;49.238;6.698;2023-02-12T03:23:08;101154.38;;;5.08;100.00
9899;BME280;4988;49.238;6.698;2023-02-12T03:25:39;101158.84;;;5.15;100.00
9899;BME280;4988;49.238;6.698;2023-02-12T03:28:09;101146.44;;;5.08;100.00
9899;BME280;4988;49.238;6.698;2023-02-12T03:36:37;101149.94;;;5.04;100.00
9899;BME280;4988;49.238;6.698;2023-02-12T03:39:12;101154.38;;;5.08;100.00
9899;BME280;4988;49.238;6.698;2023-02-12T03:41:49;101151.78;;;5.11;100.00
9899;BME280;4988;49.238;6.698;2023-02-12T03:44:22;101157.88;;;5.04;100.00
9899;BME280;4988;49.238;6.698;2023-02-12T03:47:01;101152.63;;;5.09;100.00
9899;BME280;4988;49.238;6.698;2023-02-12T03:49:47;101157.88;;;5.07;100.00
9899;BME280;4988;49.238;6.698;2023-02-12T03:52:16;101149.72;;;4.82;100.00
9899;BME280;4988;49.238;6.698;2023-02-12T03:54:41;101154.94;;;4.73;100.00
9899;BME280;4988;49.238;6.698;2023-02-12T03:57:09;101153.03;;;4.61;100.00
9899;BME280;4988;49.238;6.698;2023-02-12T03:59:37;101157.44;;;4.64;100.00
9899;BME280;4988;49.238;6.698;2023-02-12T04:02:03;101161.06;;;4.72;100.00
9899;BME280;4988;49.238;6.698;2023-02-12T04:04:29;101168.06;;;4.69;100.00
9899;BME280;4988;49.238;6.698;2023-02-12T04:06:55;101169.03;;;4.78;100.00
9899;BME280;4988;49.238;6.698;2023-02-12T04:09:21;101163.75;;;4.78;100.00
9899;BME280;4988;49.238;6.698;2023-02-12T04:12:03;101162.91;;;4.79;100.00
9899;BME280;4988;49.238;6.698;2023-02-12T04:17:29;101159.47;;;4.87;100.00
9899;BME280;4988;49.238;6.698;2023-02-12T04:20:23;101162.16;;;4.93;100.00
9899;BME280;4988;49.238;6.698;2023-02-12T04:31:07;101159.66;;;5.08;100.00
9899;BME280;4988;49.238;6.698;2023-02-12T04:36:31;101164.88;;;5.02;100.00
9899;BME280;4988;49.238;6.698;2023-02-12T04:39:02;101164.88;;;5.04;100.00
9899;BME280;4988;49.238;6.698;2023-02-12T04:41:30;101166.66;;;5.06;100.00
9899;BME280;4988;49.238;6.698;2023-02-12T04:43:55;101164.06;;;5.09;100.00
9899;BME280;4988;49.238;6.698;2023-02-12T04:46:21;101163.19;;;5.10;100.00
9899;BME280;4988;49.238;6.698;2023-02-12T04:48:54;101164.06;;;5.09;100.00
9899;BME280;4988;49.238;6.698;2023-02-12T04:51:22;101164.97;;;5.11;100.00
9899;BME280;4988;49.238;6.698;2023-02-12T04:53:47;101158.78;;;5.09;100.00
9899;BME280;4988;49.238;6.698;2023-02-12T04:56:13;101168.47;;;5.10;100.00
9899;BME280;4988;49.238;6.698;2023-02-12T04:58:39;101163.13;;;5.04;100.00
9899;BME280;4988;49.238;6.698;2023-02-12T05:01:05;101163.16;;;5.07;100.00
9899;BME280;4988;49.238;6.698;2023-02-12T05:03:30;101161.38;;;5.06;100.00
9899;BME280;4988;49.238;6.698;2023-02-12T05:06:01;101159.63;;;5.05;100.00
9899;BME280;4988;49.238;6.698;2023-02-12T05:08:27;101157.00;;;5.08;100.00
9899;BME280;4988;49.238;6.698;2023-02-12T05:10:52;101151.69;;;5.02;100.00
9899;BME280;4988;49.238;6.698;2023-02-12T05:13:17;101149.94;;;5.07;100.00
9899;BME280;4988;49.238;6.698;2023-02-12T05:15:43;101146.44;;;5.07;100.00
9899;BME280;4988;49.238;6.698;2023-02-12T05:18:08;101145.59;;;5.09;100.00
9899;BME280;4988;49.238;6.698;2023-02-12T05:20:33;101145.59;;;5.08;100.00
9899;BME280;4988;49.238;6.698;2023-02-12T05:22:59;101149.09;;;5.08;100.00
9899;BME280;4988;49.238;6.698;2023-02-12T05:25:24;101152.59;;;5.04;100.00
9899;BME280;4988;49.238;6.698;2023-02-12T05:27:49;101153.50;;;5.08;100.00
9899;BME280;4988;49.238;6.698;2023-02-12T05:30:15;101158.78;;;5.08;100.00
9899;BME280;4988;49.238;6.698;2023-02-12T05:32:40;101161.44;;;5.09;100.00
9899;BME280;4988;49.238;6.698;2023-02-12T05:35:06;101161.47;;;5.12;100.00
9899;BME280;4988;49.238;6.698;2023-02-12T05:37:34;101161.47;;;5.14;100.00
9899;BME280;4988;49.238;6.698;2023-02-12T05:40:01;101159.66;;;5.10;100.00
9899;BME280;4988;49.238;6.698;2023-02-12T05:42:28;101158.78;;;5.09;100.00
9899;BME280;4988;49.238;6.698;2023-02-12T05:44:53;101165.84;;;5.12;100.00
9899;BME280;4988;49.238;6.698;2023-02-12T05:47:19;101163.19;;;5.09;100.00
9899;BME280;4988;49.238;6.698;2023-02-12T05:49:44;101159.69;;;5.13;100.00
9899;BME280;4988;49.238;6.698;2023-02-12T05:52:09;101161.44;;;5.11;100.00
9899;BME280;4988;49.238;6.698;2023-02-12T05:54:35;101157.91;;;5.10;100.00
9899;BME280;4988;49.238;6.698;2023-02-12T05:57:00;101155.28;;;5.09;100.00
9899;BME280;4988;49.238;6.698;2023-02-12T05:59:25;101160.50;;;5.04;100.00
9899;BME280;4988;49.238;6.698;2023-02-12T06:01:51;101164.03;;;5.06;100.00
9899;BME280;4988;49.238;6.698;2023-02-12T06:04:19;101163.13;;;5.04;100.00
9899;BME280;4988;49.238;6.698;2023-02-12T06:06:45;101167.56;;;5.07;100.00
9899;BME280;4988;49.238;6.698;2023-02-12T06:09:11;101167.50;;;5.04;100.00
9899;BME280;4988;49.238;6.698;2023-02-12T06:11:37;101165.78;;;5.03;100.00
9899;BME280;4988;49.238;6.698;2023-02-12T06:14:07;101173.66;;;5.01;100.00
9899;BME280;4988;49.238;6.698;2023-02-12T06:16:33;101170.16;;;5.02;100.00
9899;BME280;4988;49.238;6.698;2023-02-12T06:19:01;101175.44;;;5.02;100.00
9899;BME280;4988;49.238;6.698;2023-02-12T06:21:29;101178.06;;;5.02;100.00
9899;BME280;4988;49.238;6.698;2023-02-12T06:23:54;101171.94;;;5.03;100.00
9899;BME280;4988;49.238;6.698;2023-02-12T06:26:21;101173.66;;;5.01;100.00
9899;BME280;4988;49.238;6.698;2023-02-12T06:28:46;101173.66;;;5.01;100.00
9899;BME280;4988;49.238;6.698;2023-02-12T06:31:23;101172.84;;;5.05;100.00
9899;BME280;4988;49.238;6.698;2023-02-12T06:33:49;101171.06;;;5.04;100.00
9899;BME280;4988;49.238;6.698;2023-02-12T06:36:15;101176.34;;;5.04;100.00
9899;BME280;4988;49.238;6.698;2023-02-12T06:38:41;101177.25;;;5.08;100.00
9899;BME280;4988;49.238;6.698;2023-02-12T06:41:06;101180.75;;;5.07;100.00
9899;BME280;4988;49.238;6.698;2023-02-12T06:43:32;101179.84;;;5.06;100.00
9899;BME280;4988;49.238;6.698;2023-02-12T06:46:00;101184.25;;;5.04;100.00
9899;BME280;4988;49.238;6.698;2023-02-12T06:48:29;101182.50;;;5.06;100.00
9899;BME280;4988;49.238;6.698;2023-02-12T06:50:54;101178.13;;;5.05;100.00
9899;BME280;4988;49.238;6.698;2023-02-12T06:53:20;101180.75;;;5.08;100.00
9899;BME280;4988;49.238;6.698;2023-02-12T06:55:45;101180.75;;;5.05;100.00
9899;BME280;4988;49.238;6.698;2023-02-12T06:58:10;101180.75;;;5.07;100.00
9899;BME280;4988;49.238;6.698;2023-02-12T07:00:36;101186.03;;;5.08;100.00
9899;BME280;4988;49.238;6.698;2023-02-12T07:03:02;101182.59;;;5.12;100.00
9899;BME280;4988;49.238;6.698;2023-02-12T07:05:28;101196.66;;;5.11;100.00
9899;BME280;4988;49.238;6.698;2023-02-12T07:07:53;101190.47;;;5.09;100.00
9899;BME280;4988;49.238;6.698;2023-02-12T07:10:18;101198.44;;;5.12;100.00
9899;BME280;4988;49.238;6.698;2023-02-12T07:12:44;101188.75;;;5.16;100.00
9899;BME280;4988;49.238;6.698;2023-02-12T07:15:10;101192.28;;;5.17;100.00
9899;BME280;4988;49.238;6.698;2023-02-12T07:17:35;101188.75;;;5.16;100.00
9899;BME280;4988;49.238;6.698;2023-02-12T07:20:01;101196.66;;;5.13;100.00
9899;BME280;4988;49.238;6.698;2023-02-12T07:22:27;101204.59;;;5.16;100.00
9899;BME280;4988;49.238;6.698;2023-02-12T07:24:52;101198.44;;;5.15;100.00
9899;BME280;4988;49.238;6.698;2023-02-12T07:27:17;101199.31;;;5.16;100.00
9899;BME280;4988;49.238;6.698;2023-02-12T07:29:43;101194.94;;;5.20;100.00
9899;BME280;4988;49.238;6.698;2023-02-12T07:32:08;101195.84;;;5.20;100.00
9899;BME280;4988;49.238;6.698;2023-02-12T07:34:33;101199.41;;;5.25;100.00
9899;BME280;4988;49.238;6.698;2023-02-12T07:36:59;101195.91;;;5.28;100.00
9899;BME280;4988;49.238;6.698;2023-02-12T07:39:24;101198.59;;;5.31;100.00
9899;BME280;4988;49.238;6.698;2023-02-12T07:41:49;101197.69;;;5.29;100.00
9899;BME280;4988;49.238;6.698;2023-02-12T07:44:15;101189.75;;;5.30;100.00
9899;BME280;4988;49.238;6.698;2023-02-12T07:46:46;101200.31;;;5.29;100.00
9899;BME280;4988;49.238;6.698;2023-02-12T07:49:13;101190.69;;;5.34;100.00
9899;BME280;4988;49.238;6.698;2023-02-12T07:51:39;101185.38;;;5.31;100.00
9899;BME280;4988;49.238;6.698;2023-02-12T07:54:04;101191.53;;;5.33;100.00
9899;BME280;4988;49.238;6.698;2023-02-12T07:56:32;101184.53;;;5.35;100.00
9899;BME280;4988;49.238;6.698;2023-02-12T07:59:01;101184.50;;;5.32;100.00
9899;BME280;4988;49.238;6.698;2023-02-12T08:01:28;101180.13;;;5.36;100.00
9899;BME280;4988;49.238;6.698;2023-02-12T08:04:01;101175.75;;;5.36;100.00
9899;BME280;4988;49.238;6.698;2023-02-12T08:06:29;101173.13;;;5.39;100.00
9899;BME280;4988;49.238;6.698;2023-02-12T08:08:59;101175.84;;;5.47;100.00
9899;BME280;4988;49.238;6.698;2023-02-12T08:11:26;101177.53;;;5.40;100.00
9899;BME280;4988;49.238;6.698;2023-02-12T08:13:53;101178.47;;;5.47;100.00
9899;BME280;4988;49.238;6.698;2023-02-12T08:16:21;101174.16;;;5.57;100.00
9899;BME280;4988;49.238;6.698;2023-02-12T08:18:47;101188.25;;;5.60;100.00
9899;BME280;4988;49.238;6.698;2023-02-12T08:21:15;101179.47;;;5.64;100.00
9899;BME280;4988;49.238;6.698;2023-02-12T08:23:43;101181.25;;;5.70;100.00
9899;BME280;4988;49.238;6.698;2023-02-12T08:26:19;101176.03;;;5.75;100.00
9899;BME280;4988;49.238;6.698;2023-02-12T08:28:47;101176.06;;;5.83;100.00
9899;BME280;4988;49.238;6.698;2023-02-12T08:31:16;101171.75;;;5.94;100.00
9899;BME280;4988;49.238;6.698;2023-02-12T08:33:45;101177.03;;;5.94;100.00
9899;BME280;4988;49.238;6.698;2023-02-12T08:36:13;101175.34;;;5.99;100.00
9899;BME280;4988;49.238;6.698;2023-02-12T08:38:40;101170.06;;;6.04;100.00
9899;BME280;4988;49.238;6.698;2023-02-12T08:41:17;101171.84;;;6.05;100.00
9899;BME280;4988;49.238;6.698;2023-02-12T08:43:43;101172.78;;;6.19;100.00
9899;BME280;4988;49.238;6.698;2023-02-12T08:46:14;101165.78;;;6.27;100.00
9899;BME280;4988;49.238;6.698;2023-02-12T08:48:40;101171.13;;;6.38;100.00
9899;BME280;4988;49.238;6.698;2023-02-12T08:51:13;101171.13;;;6.40;100.00
9899;BME280;4988;49.238;6.698;2023-02-12T08:53:41;101173.78;;;6.43;100.00
9899;BME280;4988;49.238;6.698;2023-02-12T08:56:09;101167.66;;;6.61;100.00
9899;BME280;4988;49.238;6.698;2023-02-12T08:58:36;101173.88;;;6.68;100.00
9899;BME280;4988;49.238;6.698;2023-02-12T09:01:03;101160.63;;;6.71;100.00
9899;BME280;4988;49.238;6.698;2023-02-12T09:03:30;101157.09;;;6.73;100.00
9899;BME280;4988;49.238;6.698;2023-02-12T09:05:55;101157.13;;;6.83;100.00
9899;BME280;4988;49.238;6.698;2023-02-12T09:08:20;101163.31;;;6.88;100.00
9899;BME280;4988;49.238;6.698;2023-02-12T09:10:46;101165.13;;;7.00;100.00
9899;BME280;4988;49.238;6.698;2023-02-12T09:13:13;101158.94;;;7.05;100.00
9899;BME280;4988;49.238;6.698;2023-02-12T09:15:40;101160.72;;;7.25;100.00
9899;BME280;4988;49.238;6.698;2023-02-12T09:18:06;101151.88;;;7.32;100.00
9899;BME280;4988;49.238;6.698;2023-02-12T09:20:32;101146.56;;;7.35;100.00
9899;BME280;4988;49.238;6.698;2023-02-12T09:23:00;101151.00;;;7.44;100.00
9899;BME280;4988;49.238;6.698;2023-02-12T09:25:26;101147.47;;;7.40;100.00
9899;BME280;4988;49.238;6.698;2023-02-12T09:27:51;101148.34;;;7.47;100.00
9899;BME280;4988;49.238;6.698;2023-02-12T09:30:17;101141.25;;;7.52;99.82
9899;BME280;4988;49.238;6.698;2023-02-12T09:32:42;101143.03;;;7.55;99.11
9899;BME280;4988;49.238;6.698;2023-02-12T09:35:08;101143.03;;;7.55;99.59
9899;BME280;4988;49.238;6.698;2023-02-12T09:37:35;101155.41;;;7.64;99.08
9899;BME280;4988;49.238;6.698;2023-02-12T09:40:00;101143.88;;;7.74;99.37
9899;BME280;4988;49.238;6.698;2023-02-12T09:42:56;101147.41;;;7.81;98.40
9899;BME280;4988;49.238;6.698;2023-02-12T09:45:31;101142.97;;;7.92;97.04
9899;BME280;4988;49.238;6.698;2023-02-12T09:50:51;101145.59;;;7.91;97.38
9899;BME280;4988;49.238;6.698;2023-02-12T09:53:21;101142.97;;;7.92;97.79
9899;BME280;4988;49.238;6.698;2023-02-12T09:55:47;101155.31;;;7.96;98.41
9899;BME280;4988;49.238;6.698;2023-02-12T09:58:40;101148.22;;;8.08;97.19
9899;BME280;4988;49.238;6.698;2023-02-12T10:01:11;101150.84;;;8.18;96.51
9899;BME280;4988;49.238;6.698;2023-02-12T10:03:37;101147.28;;;8.23;96.38
9899;BME280;4988;49.238;6.698;2023-02-12T10:06:30;101146.38;;;8.25;96.20
9899;BME280;4988;49.238;6.698;2023-02-12T10:11:48;101150.78;;;8.28;95.33
9899;BME280;4988;49.238;6.698;2023-02-12T10:14:34;101151.69;;;8.28;95.61
9899;BME280;4988;49.238;6.698;2023-02-12T10:20:31;101142.81;;;8.31;95.34
9899;BME280;4988;49.238;6.698;2023-02-12T10:25:58;101150.75;;;8.38;95.09
9899;BME280;4988;49.238;6.698;2023-02-12T10:28:34;101155.19;;;8.35;95.00
9899;BME280;4988;49.238;6.698;2023-02-12T10:31:33;101150.75;;;8.42;95.17
9899;BME280;4988;49.238;6.698;2023-02-12T10:33:59;101151.63;;;8.47;94.58
9899;BME280;4988;49.238;6.698;2023-02-12T10:36:46;101148.97;;;8.47;94.61
9899;BME280;4988;49.238;6.698;2023-02-12T10:39:20;101145.41;;;8.52;93.87
9899;BME280;4988;49.238;6.698;2023-02-12T10:42:08;101148.06;;;8.51;94.12
9899;BME280;4988;49.238;6.698;2023-02-12T10:44:35;101155.09;;;8.58;93.42
9899;BME280;4988;49.238;6.698;2023-02-12T10:47:01;101149.78;;;8.58;93.08
9899;BME280;4988;49.238;6.698;2023-02-12T10:49:30;101160.44;;;8.55;92.67
9899;BME280;4988;49.238;6.698;2023-02-12T10:52:16;101148.97;;;8.50;91.76
9899;BME280;4988;49.238;6.698;2023-02-12T10:54:47;101148.03;;;8.60;92.66
9899;BME280;4988;49.238;6.698;2023-02-12T10:57:21;101145.38;;;8.60;90.93
9899;BME280;4988;49.238;6.698;2023-02-12T10:59:50;101147.19;;;8.50;91.24
9899;BME280;4988;49.238;6.698;2023-02-12T11:02:27;101146.31;;;8.51;90.79
9899;BME280;4988;49.238;6.698;2023-02-12T11:04:53;101142.75;;;8.43;91.31
9899;BME280;4988;49.238;6.698;2023-02-12T11:07:20;101143.66;;;8.48;91.74
9899;BME280;4988;49.238;6.698;2023-02-12T11:09:47;101140.09;;;8.45;91.46
9899;BME280;4988;49.238;6.698;2023-02-12T11:12:33;101139.22;;;8.46;91.48
9899;BME280;4988;49.238;6.698;2023-02-12T11:15:06;101144.56;;;8.49;91.83
9899;BME280;4988;49.238;6.698;2023-02-12T11:17:39;101134.84;;;8.35;91.39
9899;BME280;4988;49.238;6.698;2023-02-12T11:20:18;101131.31;;;8.33;92.08
9899;BME280;4988;49.238;6.698;2023-02-12T11:23:00;101140.16;;;8.40;92.01
9899;BME280;4988;49.238;6.698;2023-02-12T11:25:29;101127.78;;;8.30;92.65
9899;BME280;4988;49.238;6.698;2023-02-12T11:28:15;101132.22;;;8.34;91.86
9899;BME280;4988;49.238;6.698;2023-02-12T11:31:22;101127.78;;;8.31;91.55
9899;BME280;4988;49.238;6.698;2023-02-12T11:33:45;101130.44;;;8.33;91.52
9899;BME280;4988;49.238;6.698;2023-02-12T11:36:17;101123.34;;;8.33;91.47
9899;BME280;4988;49.238;6.698;2023-02-12T11:38:53;101117.19;;;8.25;91.05
9899;BME280;4988;49.238;6.698;2023-02-12T11:43:50;101121.59;;;8.32;90.86
9899;BME280;4988;49.238;6.698;2023-02-12T11:46:22;101123.38;;;8.27;91.79
9899;BME280;4988;49.238;6.698;2023-02-12T11:48:50;101120.66;;;8.41;91.71
9899;BME280;4988;49.238;6.698;2023-02-12T11:51:35;101118.94;;;8.35;91.42
9899;BME280;4988;49.238;6.698;2023-02-12T11:54:02;101129.53;;;8.35;90.71
9899;BME280;4988;49.238;6.698;2023-02-12T11:56:44;101123.31;;;8.40;90.56
9899;BME280;4988;49.238;6.698;2023-02-12T12:01:54;101115.34;;;8.44;90.66
9899;BME280;4988;49.238;6.698;2023-02-12T12:04:24;101119.78;;;8.47;90.44
9899;BME280;4988;49.238;6.698;2023-02-12T12:06:57;101115.31;;;8.46;90.47
9899;BME280;4988;49.238;6.698;2023-02-12T12:09:34;101112.72;;;8.40;90.52
9899;BME280;4988;49.238;6.698;2023-02-12T12:12:19;101110.94;;;8.38;90.29
9899;BME280;4988;49.238;6.698;2023-02-12T12:14:52;101120.66;;;8.43;90.73
9899;BME280;4988;49.238;6.698;2023-02-12T12:20:34;101107.38;;;8.46;90.02
9899;BME280;4988;49.238;6.698;2023-02-12T12:23:10;101109.16;;;8.50;89.72
9899;BME280;4988;49.238;6.698;2023-02-12T12:25:47;101109.16;;;8.51;90.69
9899;BME280;4988;49.238;6.698;2023-02-12T12:31:13;101098.53;;;8.50;89.82
9899;BME280;4988;49.238;6.698;2023-02-12T12:33:50;101102.91;;;8.59;90.40
9899;BME280;4988;49.238;6.698;2023-02-12T12:36:33;101107.31;;;8.63;89.97
9899;BME280;4988;49.238;6.698;2023-02-12T12:39:16;101097.56;;;8.65;89.04
9899;BME280;4988;49.238;6.698;2023-02-12T12:56:09;101092.09;;;8.85;89.04
9899;BME280;4988;49.238;6.698;2023-02-12T13:09:58;101073.38;;;9.04;88.70
9899;BME280;4988;49.238;6.698;2023-02-12T13:12:49;101069.72;;;9.14;87.30
9899;BME280;4988;49.238;6.698;2023-02-12T13:25:43;101067.75;;;9.38;86.23
9899;BME280;4988;49.238;6.698;2023-02-12T13:28:15;101059.78;;;9.36;85.36
9899;BME280;4988;49.238;6.698;2023-02-12T13:30:49;101054.53;;;9.31;85.56
9899;BME280;4988;49.238;6.698;2023-02-12T13:33:32;101065.97;;;9.37;85.05
9899;BME280;4988;49.238;6.698;2023-02-12T13:36:02;101061.47;;;9.43;84.24
9899;BME280;4988;49.238;6.698;2023-02-12T13:38:33;101052.66;;;9.40;84.60
9899;BME280;4988;49.238;6.698;2023-02-12T13:41:05;101052.63;;;9.43;84.53
9899;BME280;4988;49.238;6.698;2023-02-12T13:46:17;101054.41;;;9.41;84.68
9899;BME280;4988;49.238;6.698;2023-02-12T13:49:06;101050.00;;;9.40;84.80
9899;BME280;4988;49.238;6.698;2023-02-12T13:51:40;101058.78;;;9.48;84.16
9899;BME280;4988;49.238;6.698;2023-02-12T13:54:35;101050.75;;;9.53;84.21
9899;BME280;4988;49.238;6.698;2023-02-12T13:57:13;101052.50;;;9.52;84.17
9899;BME280;4988;49.238;6.698;2023-02-12T13:59:41;101056.06;;;9.54;84.22
9899;BME280;4988;49.238;6.698;2023-02-12T14:04:59;101054.34;;;9.50;84.05
9899;BME280;4988;49.238;6.698;2023-02-12T14:07:46;101044.53;;;9.52;84.27
9899;BME280;4988;49.238;6.698;2023-02-12T14:10:25;101053.38;;;9.54;83.53
9899;BME280;4988;49.238;6.698;2023-02-12T14:12:54;101047.22;;;9.54;83.60
9899;BME280;4988;49.238;6.698;2023-02-12T14:15:27;101037.53;;;9.46;84.29
9899;BME280;4988;49.238;6.698;2023-02-12T14:17:55;101038.34;;;9.52;84.05
9899;BME280;4988;49.238;6.698;2023-02-12T14:20:35;101033.06;;;9.50;83.46
9899;BME280;4988;49.238;6.698;2023-02-12T14:23:26;101040.16;;;9.51;83.67
9899;BME280;4988;49.238;6.698;2023-02-12T14:26:04;101030.34;;;9.53;83.70
9899;BME280;4988;49.238;6.698;2023-02-12T14:33:49;101038.44;;;9.44;83.83
9899;BME280;4988;49.238;6.698;2023-02-12T14:41:24;101041.00;;;9.55;83.53
9899;BME280;4988;49.238;6.698;2023-02-12T14:46:47;101036.66;;;9.44;84.22
9899;BME280;4988;49.238;6.698;2023-02-12T14:49:49;101031.34;;;9.44;83.43
9899;BME280;4988;49.238;6.698;2023-02-12T14:52:25;101028.72;;;9.41;84.21
9899;BME280;4988;49.238;6.698;2023-02-12T14:54:55;101030.41;;;9.50;83.37
9899;BME280;4988;49.238;6.698;2023-02-12T14:57:39;101025.97;;;9.49;83.33
9899;BME280;4988;49.238;6.698;2023-02-12T15:05:41;101025.16;;;9.44;83.07
9899;BME280;4988;49.238;6.698;2023-02-12T15:08:18;101030.50;;;9.39;83.55
9899;BME280;4988;49.238;6.698;2023-02-12T15:14:00;101019.97;;;9.31;83.88
9899;BME280;4988;49.238;6.698;2023-02-12T15:16:44;101023.47;;;9.33;84.30
9899;BME280;4988;49.238;6.698;2023-02-12T15:21:47;101014.69;;;9.27;84.71
9899;BME280;4988;49.238;6.698;2023-02-12T15:24:20;101014.72;;;9.25;84.66
9899;BME280;4988;49.238;6.698;2023-02-12T15:26:49;101018.25;;;9.26;84.39
9899;BME280;4988;49.238;6.698;2023-02-12T15:29:21;101018.22;;;9.27;84.46
9899;BME280;4988;49.238;6.698;2023-02-12T15:31:53;101014.72;;;9.24;84.06
9899;BME280;4988;49.238;6.698;2023-02-12T15:34:23;101009.53;;;9.13;84.69